Selenka — 9HVO9 — position and weather

sailwx.info

Track history (hours):
 
Tides and Currents Weather Stations Pressure Air Temp Water Temp Dewpoint Dewpoint Depression Visibility Wind Speed Wind Dir Waves Ship Positions

Selenka

Last reported at 2018-Jul-27 09:39 UTC. Time now 2018-Aug-16 08:00 UTC.
Position N 39°40' E 011°01'.
Warning: this ship's position is 19 days out of date.

Length 132 m; draft 7 m.

Type: Tanker. MMSI: 249598000.

Date/timePositionNaut miles runAvg speedWind from/ knotsBaromVisibWave heightAir tempDewpointWater temp
2018-Jul-27 09:39N 39°40' E 011°01'211.9
2018-Jul-27 09:30N 39°41' E 011°00'611.8
2018-Jul-27 09:00N 39°47' E 010°58'611.7
2018-Jul-27 08:30N 39°52' E 010°56'1011.8
2018-Jul-27 07:40N 40°02' E 010°52'211.8
2018-Jul-27 07:30N 40°04' E 010°51'811.8
2018-Jul-27 06:49N 40°11' E 010°48'411.6
2018-Jul-27 06:25N 40°16' E 010°46'511.6
2018-Jul-27 06:00N 40°20' E 010°44'611.7
2018-Jul-27 05:30N 40°26' E 010°41'611.9
2018-Jul-27 04:58N 40°32' E 010°38'612.0
2018-Jul-27 04:30N 40°37' E 010°37'612.1
2018-Jul-27 04:00N 40°43' E 010°35'612.1
2018-Jul-27 03:30N 40°49' E 010°32'612.1
2018-Jul-27 03:00N 40°54' E 010°29'612.0
2018-Jul-27 02:30N 40°60' E 010°26'611.8
2018-Jul-27 02:00N 41°05' E 010°24'611.8
2018-Jul-27 01:30N 41°11' E 010°21'612.0
2018-Jul-27 01:00N 41°17' E 010°19'612.0
2018-Jul-27 00:30N 41°23' E 010°17'611.9
2018-Jul-27 00:00N 41°28' E 010°14'611.6
2018-Jul-26 23:30N 41°34' E 010°12'1311.6
2018-Jul-26 22:22N 41°46' E 010°06'1111.5
2018-Jul-26 21:28N 41°56' E 010°01'1111.4
2018-Jul-26 20:28N 42°07' E 009°57'911.6
2018-Jul-26 19:43N 42°15' E 009°53'311.7
2018-Jul-26 19:29N 42°18' E 009°52'911.7
2018-Jul-26 18:44N 42°26' E 009°48'311.8
2018-Jul-26 18:30N 42°29' E 009°46'611.9
2018-Jul-26 18:00N 42°34' E 009°44'612.0
2018-Jul-26 17:30N 42°40' E 009°42'611.9
2018-Jul-26 17:00N 42°46' E 009°39'611.6
2018-Jul-26 16:30N 42°51' E 009°37'611.4
2018-Jul-26 15:59N 42°57' E 009°36'511.1
2018-Jul-26 15:30N 43°02' E 009°36'611.3
2018-Jul-26 15:00N 43°07' E 009°40'611.4
2018-Jul-26 14:30N 43°11' E 009°45'611.4
2018-Jul-26 14:00N 43°14' E 009°52'611.4
2018-Jul-26 13:30N 43°18' E 009°58'611.3
2018-Jul-26 13:00N 43°22' E 010°03'611.2
2018-Jul-26 12:30N 43°26' E 010°08'611.4
2018-Jul-26 12:00N 43°31' E 010°13'4 7.4
2018-Jul-26 11:30N 43°33' E 010°17'2 4.4
2018-Jul-26 11:00N 43°34' E 010°19'0 0.0
2018-Jul-26 10:30N 43°34' E 010°19'0 0.0
2018-Jul-26 10:00N 43°34' E 010°19'0 0.0
2018-Jul-26 09:30N 43°34' E 010°19'0 0.0
2018-Jul-26 08:57N 43°34' E 010°19'0 0.0
2018-Jul-26 08:30N 43°34' E 010°19'0 0.0
2018-Jul-26 08:00N 43°34' E 010°19'0 0.0
2018-Jul-26 07:30N 43°34' E 010°19'0 0.0
2018-Jul-26 07:00N 43°34' E 010°19'0 0.0
2018-Jul-26 06:30N 43°34' E 010°19'0 0.0
2018-Jul-26 06:00N 43°34' E 010°19'0 0.0
2018-Jul-26 05:30N 43°34' E 010°19'0 0.0
2018-Jul-26 04:57N 43°34' E 010°19'0 0.0
2018-Jul-26 04:30N 43°34' E 010°19'0 0.0
2018-Jul-26 04:00N 43°34' E 010°19'0 0.0
2018-Jul-26 03:30N 43°34' E 010°19'0 0.0
2018-Jul-26 03:00N 43°34' E 010°19'0 0.0
2018-Jul-26 02:30N 43°34' E 010°19'0 0.0
2018-Jul-26 02:00N 43°34' E 010°19'0 0.0
2018-Jul-26 01:30N 43°34' E 010°19'0 0.0
2018-Jul-26 01:00N 43°34' E 010°19'0 0.0
2018-Jul-26 00:30N 43°34' E 010°19'0 0.0
2018-Jul-26 00:00N 43°34' E 010°19'0 0.0
2018-Jul-25 23:30N 43°34' E 010°19'0 0.0
2018-Jul-25 22:57N 43°34' E 010°19'0 0.0
2018-Jul-25 22:30N 43°34' E 010°19'0 0.0
2018-Jul-25 22:00N 43°34' E 010°19'0 0.0
2018-Jul-25 21:30N 43°34' E 010°19'0 0.0
2018-Jul-25 21:00N 43°34' E 010°19'0 0.0
2018-Jul-25 20:30N 43°34' E 010°19'0 0.0
2018-Jul-25 20:00N 43°34' E 010°19'0 0.0
2018-Jul-25 19:30N 43°34' E 010°19'0 0.0
2018-Jul-25 18:57N 43°34' E 010°19'0 0.0
2018-Jul-25 18:27N 43°34' E 010°19'0 0.0
2018-Jul-25 17:54N 43°34' E 010°19'0 0.0
2018-Jul-25 17:27N 43°34' E 010°19'0 0.0
2018-Jul-25 17:00N 43°34' E 010°19'0 0.0
2018-Jul-25 16:30N 43°34' E 010°19'0 0.0
2018-Jul-25 16:00N 43°34' E 010°19'0 0.0
2018-Jul-25 15:27N 43°34' E 010°19'0 0.0
2018-Jul-25 15:00N 43°34' E 010°19'0 0.0
2018-Jul-25 14:27N 43°34' E 010°19'0 0.0
2018-Jul-25 14:00N 43°34' E 010°19'0 0.0
2018-Jul-25 13:30N 43°34' E 010°19'0 0.0
2018-Jul-25 13:00N 43°34' E 010°19'0 0.0
2018-Jul-25 12:30N 43°34' E 010°19'0 0.0
2018-Jul-25 12:00N 43°34' E 010°19'0 0.0
2018-Jul-25 11:30N 43°34' E 010°19'0 0.0
2018-Jul-25 11:00N 43°34' E 010°19'0 0.0
2018-Jul-25 10:30N 43°34' E 010°19'0 0.0
2018-Jul-25 10:00N 43°34' E 010°19'0 0.0
2018-Jul-25 09:30N 43°34' E 010°19'0 0.0
2018-Jul-25 09:00N 43°34' E 010°19'0 0.0
2018-Jul-25 08:27N 43°34' E 010°19'0 0.0
2018-Jul-25 07:48N 43°34' E 010°19'0 0.0
2018-Jul-25 07:30N 43°34' E 010°19'0 0.0
2018-Jul-25 07:00N 43°34' E 010°19'0 0.0
2018-Jul-25 06:30N 43°34' E 010°19'0 0.0
2018-Jul-25 06:00N 43°34' E 010°19'0 0.0
2018-Jul-25 05:30N 43°34' E 010°19'0 0.0
2018-Jul-25 05:00N 43°34' E 010°19'0 0.0
2018-Jul-25 04:27N 43°34' E 010°19'0 0.0
2018-Jul-25 04:00N 43°34' E 010°19'0 0.0
2018-Jul-25 03:30N 43°34' E 010°19'0 0.0
2018-Jul-25 02:57N 43°34' E 010°19'0 0.0
2018-Jul-25 02:27N 43°34' E 010°19'0 0.0
2018-Jul-25 02:00N 43°34' E 010°19'0 0.0
2018-Jul-25 01:30N 43°34' E 010°19'0 0.0
2018-Jul-25 01:00N 43°34' E 010°19'0 0.0
2018-Jul-25 00:30N 43°34' E 010°19'0 0.0
2018-Jul-25 00:00N 43°34' E 010°19'0 0.0
2018-Jul-24 23:30N 43°34' E 010°19'0 0.0
2018-Jul-24 23:00N 43°34' E 010°19'0 0.0
2018-Jul-24 22:27N 43°34' E 010°19'0 0.0
2018-Jul-24 22:00N 43°34' E 010°19'0 0.0
2018-Jul-24 21:24N 43°34' E 010°19'0 0.0
2018-Jul-24 21:00N 43°34' E 010°19'0 0.0
2018-Jul-24 20:30N 43°34' E 010°19'0 0.0
2018-Jul-24 20:00N 43°34' E 010°19'0 0.0
2018-Jul-24 19:30N 43°34' E 010°19'0 0.0
2018-Jul-24 19:00N 43°34' E 010°19'0 0.0
2018-Jul-24 18:30N 43°34' E 010°19'0 0.0
2018-Jul-24 18:00N 43°34' E 010°19'0 0.0
2018-Jul-24 17:30N 43°34' E 010°19'0 0.0
2018-Jul-24 17:00N 43°34' E 010°19'0 0.0
2018-Jul-24 16:30N 43°34' E 010°19'0 0.0
2018-Jul-24 16:00N 43°34' E 010°19'0 0.0
2018-Jul-24 15:30N 43°34' E 010°19'0 0.0
2018-Jul-24 14:21N 43°34' E 010°19'0 0.0
2018-Jul-24 14:00N 43°34' E 010°19'0 0.0
2018-Jul-24 13:30N 43°34' E 010°19'0 0.0
2018-Jul-24 12:57N 43°34' E 010°19'0 0.0
2018-Jul-24 12:27N 43°34' E 010°19'0 0.0
2018-Jul-24 12:00N 43°34' E 010°19'0 0.0
2018-Jul-24 11:30N 43°34' E 010°19'0 0.0
2018-Jul-24 10:51N 43°34' E 010°19'0 0.0
2018-Jul-24 10:30N 43°34' E 010°19'0 0.0
2018-Jul-24 09:57N 43°34' E 010°19'0 0.0
2018-Jul-24 09:27N 43°34' E 010°19'0 0.0
2018-Jul-24 09:00N 43°34' E 010°19'0 0.0
2018-Jul-24 08:30N 43°34' E 010°19'0 0.0
2018-Jul-24 07:57N 43°34' E 010°19'0 0.0
2018-Jul-24 07:30N 43°34' E 010°19'0 0.0
2018-Jul-24 07:00N 43°34' E 010°19'0 0.0
2018-Jul-24 06:30N 43°34' E 010°19'0 0.0
2018-Jul-24 06:00N 43°34' E 010°19'0 0.0
2018-Jul-24 05:30N 43°34' E 010°19'0 0.0
2018-Jul-24 05:00N 43°34' E 010°19'0 0.0
2018-Jul-24 04:27N 43°34' E 010°19'0 0.0
2018-Jul-24 03:57N 43°34' E 010°19'0 0.0
2018-Jul-24 03:30N 43°34' E 010°19'0 0.0
2018-Jul-24 03:00N 43°34' E 010°19'0 0.0
2018-Jul-24 02:30N 43°34' E 010°19'0 0.0
2018-Jul-24 02:00N 43°34' E 010°19'0 0.0
2018-Jul-24 01:30N 43°34' E 010°19'0 0.0
2018-Jul-24 01:00N 43°34' E 010°19'0 0.0
2018-Jul-24 00:30N 43°34' E 010°19'0 0.0
2018-Jul-23 23:57N 43°34' E 010°19'0 0.0
2018-Jul-23 23:27N 43°34' E 010°19'0 0.0
2018-Jul-23 23:00N 43°34' E 010°19'0 0.0
2018-Jul-23 22:30N 43°34' E 010°19'0 0.0
2018-Jul-23 22:00N 43°34' E 010°19'0 0.0
2018-Jul-23 21:30N 43°34' E 010°19'0 0.0
2018-Jul-23 21:00N 43°34' E 010°19'0 0.0
2018-Jul-23 20:27N 43°34' E 010°19'0 0.0
2018-Jul-23 19:30N 43°34' E 010°19'0 0.0
2018-Jul-23 18:59N 43°34' E 010°19'1 1.9
2018-Jul-23 18:30N 43°34' E 010°18'3 5.5
2018-Jul-23 18:00N 43°31' E 010°16'1 1.9
2018-Jul-23 17:31N 43°31' E 010°17'0 0.5
2018-Jul-23 17:00N 43°30' E 010°17'1 2.2
2018-Jul-23 16:30N 43°29' E 010°17'0 0.1
2018-Jul-23 15:56N 43°29' E 010°17'0 0.0
2018-Jul-23 15:29N 43°29' E 010°17'0 0.0
2018-Jul-23 14:59N 43°29' E 010°17'0 0.0
2018-Jul-23 14:29N 43°29' E 010°17'0 0.0
2018-Jul-23 13:59N 43°29' E 010°17'0 0.0
2018-Jul-23 13:29N 43°29' E 010°17'0 0.0
2018-Jul-23 12:59N 43°29' E 010°17'0 0.0
2018-Jul-23 12:29N 43°29' E 010°17'0 0.0
2018-Jul-23 11:59N 43°29' E 010°17'0 0.0
2018-Jul-23 11:26N 43°29' E 010°17'0 0.0
2018-Jul-23 10:59N 43°29' E 010°17'0 0.0
2018-Jul-23 10:23N 43°29' E 010°17'0 0.0
2018-Jul-23 09:59N 43°29' E 010°17'0 0.0
2018-Jul-23 09:26N 43°29' E 010°17'0 0.0
2018-Jul-23 08:59N 43°29' E 010°17'0 0.0
2018-Jul-23 08:26N 43°29' E 010°17'0 0.0
2018-Jul-23 07:53N 43°29' E 010°17'0 0.0
2018-Jul-23 07:29N 43°29' E 010°17'0 0.0
2018-Jul-23 06:59N 43°29' E 010°17'0 0.1
2018-Jul-23 06:26N 43°29' E 010°17'0 0.1
2018-Jul-23 05:59N 43°29' E 010°17'0 0.1
2018-Jul-23 05:29N 43°29' E 010°17'0 0.0
2018-Jul-23 04:59N 43°29' E 010°17'0 0.3
2018-Jul-23 04:29N 43°29' E 010°17'0 0.0
2018-Jul-23 03:59N 43°29' E 010°17'0 0.0
2018-Jul-23 03:29N 43°29' E 010°17'0 0.1
2018-Jul-23 02:59N 43°29' E 010°17'0 0.1
2018-Jul-23 02:29N 43°29' E 010°17'0 0.1
2018-Jul-23 01:59N 43°29' E 010°17'0 0.1
2018-Jul-23 01:29N 43°29' E 010°17'0 0.0
2018-Jul-23 00:59N 43°29' E 010°17'0 0.0
2018-Jul-23 00:29N 43°29' E 010°17'0 0.1
2018-Jul-22 23:59N 43°29' E 010°17'0 0.0
2018-Jul-22 23:29N 43°29' E 010°17'0 0.1
2018-Jul-22 22:59N 43°29' E 010°17'0 0.0
2018-Jul-22 22:29N 43°29' E 010°17'0 0.0
2018-Jul-22 21:59N 43°29' E 010°17'0 0.0
2018-Jul-22 21:29N 43°29' E 010°17'0 0.0
2018-Jul-22 20:59N 43°29' E 010°17'0 0.0
2018-Jul-22 20:29N 43°29' E 010°17'0 0.0
2018-Jul-22 19:59N 43°29' E 010°17'0 0.0
2018-Jul-22 19:29N 43°29' E 010°17'0 0.0
2018-Jul-22 18:59N 43°29' E 010°17'0 0.0
2018-Jul-22 18:29N 43°29' E 010°17'0 0.0
2018-Jul-22 17:59N 43°29' E 010°17'0 0.0
2018-Jul-22 17:29N 43°29' E 010°17'0 0.0
2018-Jul-22 16:53N 43°29' E 010°17'0 0.0
2018-Jul-22 16:29N 43°29' E 010°17'0 0.0
2018-Jul-22 15:59N 43°29' E 010°17'0 0.0
2018-Jul-22 14:59N 43°29' E 010°17'0 0.0
2018-Jul-22 14:29N 43°29' E 010°17'0 0.1
2018-Jul-22 13:59N 43°29' E 010°17'0 0.0
2018-Jul-22 13:29N 43°29' E 010°17'0 0.1
2018-Jul-22 12:59N 43°29' E 010°17'0 0.1
2018-Jul-22 12:29N 43°29' E 010°17'0 0.0
2018-Jul-22 11:59N 43°29' E 010°17'0 0.0
2018-Jul-22 11:29N 43°29' E 010°17'0 0.0
2018-Jul-22 10:59N 43°29' E 010°17'0 0.0
2018-Jul-22 10:29N 43°29' E 010°17'0 0.0
2018-Jul-22 09:59N 43°29' E 010°17'0 0.0
2018-Jul-22 09:29N 43°29' E 010°17'0 0.0
2018-Jul-22 08:59N 43°29' E 010°17'0 0.0
2018-Jul-22 08:29N 43°29' E 010°17'0 0.1
2018-Jul-22 07:59N 43°29' E 010°17'0 0.0
2018-Jul-22 07:26N 43°29' E 010°17'0 0.0
2018-Jul-22 06:59N 43°29' E 010°17'0 0.0
2018-Jul-22 06:29N 43°29' E 010°17'0 0.0
2018-Jul-22 05:59N 43°29' E 010°17'0 0.0
2018-Jul-22 05:29N 43°29' E 010°17'0 0.0
2018-Jul-22 04:59N 43°29' E 010°17'0 0.0
2018-Jul-22 04:29N 43°29' E 010°17'0 0.0
2018-Jul-22 03:59N 43°29' E 010°17'0 0.0
2018-Jul-22 03:29N 43°29' E 010°17'0 0.0
2018-Jul-22 02:59N 43°29' E 010°17'0 0.0
2018-Jul-22 02:29N 43°29' E 010°17'0 0.0
2018-Jul-22 01:59N 43°29' E 010°17'0 0.1
2018-Jul-22 01:29N 43°29' E 010°17'0 0.0
2018-Jul-22 00:59N 43°29' E 010°17'0 0.0
2018-Jul-22 00:29N 43°29' E 010°17'0 0.0
2018-Jul-21 23:59N 43°29' E 010°17'0 0.0
2018-Jul-21 23:29N 43°29' E 010°17'0 0.0
2018-Jul-21 22:59N 43°29' E 010°17'0 0.1
2018-Jul-21 22:29N 43°29' E 010°17'0 0.0
2018-Jul-21 21:59N 43°29' E 010°17'0 0.0
2018-Jul-21 21:23N 43°29' E 010°17'0 0.0
2018-Jul-21 20:59N 43°29' E 010°17'0 0.0
2018-Jul-21 20:29N 43°29' E 010°17'0 0.0
2018-Jul-21 19:59N 43°29' E 010°17'0 0.0
2018-Jul-21 19:29N 43°29' E 010°17'0 0.0
2018-Jul-21 18:59N 43°29' E 010°17'0 0.0
2018-Jul-21 18:29N 43°29' E 010°17'0 0.0
2018-Jul-21 17:59N 43°29' E 010°17'0 0.0
2018-Jul-21 17:29N 43°29' E 010°17'0 0.0
2018-Jul-21 16:59N 43°29' E 010°17'0 0.0
2018-Jul-21 16:29N 43°29' E 010°17'0 0.0
2018-Jul-21 15:59N 43°29' E 010°17'0 0.0
2018-Jul-21 15:29N 43°29' E 010°17'0 0.0
2018-Jul-21 14:59N 43°29' E 010°17'0 0.0
2018-Jul-21 14:29N 43°29' E 010°17'0 0.0
2018-Jul-21 13:59N 43°29' E 010°17'0 0.0
2018-Jul-21 13:29N 43°29' E 010°17'0 0.0
2018-Jul-21 12:59N 43°29' E 010°17'0 0.0
2018-Jul-21 12:29N 43°29' E 010°17'0 0.0
2018-Jul-21 11:59N 43°29' E 010°17'0 0.0
2018-Jul-21 11:29N 43°29' E 010°17'0 0.0
2018-Jul-21 10:59N 43°29' E 010°17'0 0.0
2018-Jul-21 10:29N 43°29' E 010°17'0 0.0
2018-Jul-21 09:59N 43°29' E 010°17'0 0.0
2018-Jul-21 09:29N 43°29' E 010°17'0 0.0
2018-Jul-21 08:59N 43°29' E 010°17'0 0.0
2018-Jul-21 08:29N 43°29' E 010°17'0 0.0
2018-Jul-21 07:59N 43°29' E 010°17'0 0.0
2018-Jul-21 07:29N 43°29' E 010°17'0 0.0
2018-Jul-21 06:59N 43°29' E 010°17'0 0.0
2018-Jul-21 06:29N 43°29' E 010°17'0 0.0
2018-Jul-21 05:59N 43°29' E 010°17'0 0.0
2018-Jul-21 05:29N 43°29' E 010°17'0 0.0
2018-Jul-21 04:59N 43°29' E 010°17'0 0.0
2018-Jul-21 04:29N 43°29' E 010°17'0 0.0
2018-Jul-21 03:59N 43°29' E 010°17'0 0.0
2018-Jul-21 03:29N 43°29' E 010°17'0 0.0
2018-Jul-21 02:59N 43°29' E 010°17'0 0.0
2018-Jul-21 02:29N 43°29' E 010°17'0 0.0
2018-Jul-21 01:59N 43°29' E 010°17'0 0.1
2018-Jul-21 01:26N 43°29' E 010°17'0 0.2
2018-Jul-21 00:59N 43°29' E 010°17'0 0.1
2018-Jul-21 00:29N 43°29' E 010°17'0 0.1
2018-Jul-20 23:59N 43°29' E 010°17'0 0.1
2018-Jul-20 23:29N 43°29' E 010°17'0 0.0
2018-Jul-20 22:59N 43°29' E 010°17'0 0.0
2018-Jul-20 22:29N 43°29' E 010°17'0 0.1
2018-Jul-20 21:59N 43°29' E 010°17'0 0.0
2018-Jul-20 21:29N 43°29' E 010°17'0 0.0
2018-Jul-20 20:59N 43°29' E 010°17'0 0.0
2018-Jul-20 20:29N 43°29' E 010°17'0 0.0
2018-Jul-20 19:59N 43°29' E 010°17'0 0.0
2018-Jul-20 19:29N 43°29' E 010°17'0 0.0
2018-Jul-20 18:59N 43°29' E 010°17'0 0.0
2018-Jul-20 18:26N 43°29' E 010°17'0 0.0
2018-Jul-20 17:56N 43°29' E 010°17'0 0.0
2018-Jul-20 17:29N 43°29' E 010°17'0 0.0
2018-Jul-20 16:59N 43°29' E 010°17'0 0.0
2018-Jul-20 16:29N 43°29' E 010°17'0 0.0
2018-Jul-20 15:59N 43°29' E 010°17'0 0.0
2018-Jul-20 15:29N 43°29' E 010°17'0 0.0
2018-Jul-20 14:59N 43°29' E 010°17'0 0.0
2018-Jul-20 14:29N 43°29' E 010°17'0 0.0
2018-Jul-20 13:59N 43°29' E 010°17'0 0.0
2018-Jul-20 13:29N 43°29' E 010°17'0 0.0
2018-Jul-20 12:59N 43°29' E 010°17'0 0.0
2018-Jul-20 12:29N 43°29' E 010°17'0 0.0
2018-Jul-20 11:59N 43°29' E 010°17'0 0.0
2018-Jul-20 11:29N 43°29' E 010°17'0 0.0
2018-Jul-20 10:59N 43°29' E 010°17'0 0.0
2018-Jul-20 10:29N 43°29' E 010°17'0 0.8
2018-Jul-20 10:00N 43°29' E 010°17'4 7.7
2018-Jul-20 09:30N 43°27' E 010°13'611.3
2018-Jul-20 09:00N 43°23' E 010°07'611.5
2018-Jul-20 08:30N 43°19' E 010°02'611.4
2018-Jul-20 08:00N 43°15' E 009°56'611.5
2018-Jul-20 07:30N 43°12' E 009°49'611.6
2018-Jul-20 07:00N 43°09' E 009°43'811.3
2018-Jul-20 06:19N 43°01' E 009°39'512.0
2018-Jul-20 05:56N 42°57' E 009°40'611.8
2018-Jul-20 05:27N 42°51' E 009°42'1311.6
2018-Jul-20 04:22N 42°39' E 009°48'511.3
2018-Jul-20 03:54N 42°34' E 009°50'1111.5
2018-Jul-20 02:57N 42°24' E 009°54'1111.5
2018-Jul-20 01:58N 42°13' E 009°59'511.5
2018-Jul-20 01:30N 42°08' E 010°02'711.4
2018-Jul-20 00:54N 42°02' E 010°05'611.3
2018-Jul-20 00:24N 41°56' E 010°07'811.6
2018-Jul-19 23:41N 41°48' E 010°11'211.7
2018-Jul-19 23:30N 41°46' E 010°12'1211.6
2018-Jul-19 22:30N 41°35' E 010°16'611.3
2018-Jul-19 22:00N 41°30' E 010°18'611.1
2018-Jul-19 21:30N 41°25' E 010°21'511.0
2018-Jul-19 21:00N 41°20' E 010°23'510.9
2018-Jul-19 20:30N 41°14' E 010°26'911.0
2018-Jul-19 19:41N 41°06' E 010°29'711.1
2018-Jul-19 19:04N 40°59' E 010°31'111.4
2018-Jul-19 19:00N 40°58' E 010°32'611.5
2018-Jul-19 18:30N 40°53' E 010°34'611.4
2018-Jul-19 18:00N 40°48' E 010°36'611.2
2018-Jul-19 17:30N 40°42' E 010°38'611.3
2018-Jul-19 17:00N 40°37' E 010°41'611.3
2018-Jul-19 16:30N 40°32' E 010°43'611.3
2018-Jul-19 16:00N 40°26' E 010°46'611.2
2018-Jul-19 15:30N 40°21' E 010°48'511.0
2018-Jul-19 15:00N 40°16' E 010°51'1110.9
2018-Jul-19 14:00N 40°06' E 010°56'510.7
2018-Jul-19 13:30N 40°01' E 010°58'510.9
2018-Jul-19 13:00N 39°56' E 011°01'511.0
2018-Jul-19 12:30N 39°50' E 011°03'611.2
2018-Jul-19 12:01N 39°45' E 011°05'611.3
2018-Jul-19 11:30N 39°40' E 011°08'611.3
2018-Jul-19 11:00N 39°34' E 011°10'611.2
2018-Jul-19 10:30N 39°29' E 011°13'511.0
2018-Jul-19 10:00N 39°24' E 011°15'510.9
2018-Jul-19 09:30N 39°19' E 011°17'611.3
2018-Jul-19 08:59N 39°13' E 011°19'511.1
2018-Jul-19 08:30N 39°08' E 011°21'611.3
2018-Jul-19 08:00N 39°02' E 011°23'611.4
2018-Jul-19 07:30N 38°57' E 011°25'6312.0
2018-Jul-19 02:17N 37°58' E 011°52'311.8
2018-Jul-19 02:00N 37°55' E 011°53'611.9
2018-Jul-19 01:30N 37°49' E 011°55'1810.7
2018-Jul-18 23:48N 37°35' E 012°09'511.4
2018-Jul-18 23:23N 37°32' E 012°14'411.3
2018-Jul-18 23:00N 37°30' E 012°19'4711.6
2018-Jul-18 18:57N 37°09' E 013°12'511.5
2018-Jul-18 18:30N 37°07' E 013°18'611.5
2018-Jul-18 17:59N 37°04' E 013°24'611.9
2018-Jul-18 17:30N 37°02' E 013°31'611.9
2018-Jul-18 17:00N 36°60' E 013°38'611.8
2018-Jul-18 16:30N 36°58' E 013°45'611.9
2018-Jul-18 16:00N 36°55' E 013°52'611.8
2018-Jul-18 15:30N 36°53' E 013°59'611.7
2018-Jul-18 15:00N 36°50' E 014°05'611.8
2018-Jul-18 14:30N 36°48' E 014°12'1111.1
2018-Jul-18 13:30N 36°43' E 014°24'510.3
2018-Jul-18 13:00N 36°41' E 014°30'510.0
2018-Jul-18 12:30N 36°39' E 014°36'5 9.7
2018-Jul-18 12:00N 36°37' E 014°41'510.9
2018-Jul-18 11:30N 36°35' E 014°48'  
Track history (hours):
 
Tides and Currents Weather Stations Pressure Air Temp Water Temp Dewpoint Dewpoint Depression Visibility Wind Speed Wind Dir Waves Ship Positions

Selenka

Last reported at 2018-Jul-27 09:39 UTC. Time now 2018-Aug-16 08:00 UTC.
Position N 39°40' E 011°01'.
Warning: this ship's position is 19 days out of date.

Length 132 m; draft 7 m.

Type: Tanker. MMSI: 249598000.

Date/timePositionNaut miles runAvg speedWind from/ knotsBaromVisibWave heightAir tempDewpointWater temp
2018-Jul-27 09:39N 39°40' E 011°01'211.9
2018-Jul-27 09:30N 39°41' E 011°00'611.8
2018-Jul-27 09:00N 39°47' E 010°58'611.7
2018-Jul-27 08:30N 39°52' E 010°56'1011.8
2018-Jul-27 07:40N 40°02' E 010°52'211.8
2018-Jul-27 07:30N 40°04' E 010°51'811.8
2018-Jul-27 06:49N 40°11' E 010°48'411.6
2018-Jul-27 06:25N 40°16' E 010°46'511.6
2018-Jul-27 06:00N 40°20' E 010°44'611.7
2018-Jul-27 05:30N 40°26' E 010°41'611.9
2018-Jul-27 04:58N 40°32' E 010°38'612.0
2018-Jul-27 04:30N 40°37' E 010°37'612.1
2018-Jul-27 04:00N 40°43' E 010°35'612.1
2018-Jul-27 03:30N 40°49' E 010°32'612.1
2018-Jul-27 03:00N 40°54' E 010°29'612.0
2018-Jul-27 02:30N 40°60' E 010°26'611.8
2018-Jul-27 02:00N 41°05' E 010°24'611.8
2018-Jul-27 01:30N 41°11' E 010°21'612.0
2018-Jul-27 01:00N 41°17' E 010°19'612.0
2018-Jul-27 00:30N 41°23' E 010°17'611.9
2018-Jul-27 00:00N 41°28' E 010°14'611.6
2018-Jul-26 23:30N 41°34' E 010°12'1311.6
2018-Jul-26 22:22N 41°46' E 010°06'1111.5
2018-Jul-26 21:28N 41°56' E 010°01'1111.4
2018-Jul-26 20:28N 42°07' E 009°57'911.6
2018-Jul-26 19:43N 42°15' E 009°53'311.7
2018-Jul-26 19:29N 42°18' E 009°52'911.7
2018-Jul-26 18:44N 42°26' E 009°48'311.8
2018-Jul-26 18:30N 42°29' E 009°46'611.9
2018-Jul-26 18:00N 42°34' E 009°44'612.0
2018-Jul-26 17:30N 42°40' E 009°42'611.9
2018-Jul-26 17:00N 42°46' E 009°39'611.6
2018-Jul-26 16:30N 42°51' E 009°37'611.4
2018-Jul-26 15:59N 42°57' E 009°36'511.1
2018-Jul-26 15:30N 43°02' E 009°36'611.3
2018-Jul-26 15:00N 43°07' E 009°40'611.4
2018-Jul-26 14:30N 43°11' E 009°45'611.4
2018-Jul-26 14:00N 43°14' E 009°52'611.4
2018-Jul-26 13:30N 43°18' E 009°58'611.3
2018-Jul-26 13:00N 43°22' E 010°03'611.2
2018-Jul-26 12:30N 43°26' E 010°08'611.4
2018-Jul-26 12:00N 43°31' E 010°13'4 7.4
2018-Jul-26 11:30N 43°33' E 010°17'2 4.4
2018-Jul-26 11:00N 43°34' E 010°19'0 0.0
2018-Jul-26 10:30N 43°34' E 010°19'0 0.0
2018-Jul-26 10:00N 43°34' E 010°19'0 0.0
2018-Jul-26 09:30N 43°34' E 010°19'0 0.0
2018-Jul-26 08:57N 43°34' E 010°19'0 0.0
2018-Jul-26 08:30N 43°34' E 010°19'0 0.0
2018-Jul-26 08:00N 43°34' E 010°19'0 0.0
2018-Jul-26 07:30N 43°34' E 010°19'0 0.0
2018-Jul-26 07:00N 43°34' E 010°19'0 0.0
2018-Jul-26 06:30N 43°34' E 010°19'0 0.0
2018-Jul-26 06:00N 43°34' E 010°19'0 0.0
2018-Jul-26 05:30N 43°34' E 010°19'0 0.0
2018-Jul-26 04:57N 43°34' E 010°19'0 0.0
2018-Jul-26 04:30N 43°34' E 010°19'0 0.0
2018-Jul-26 04:00N 43°34' E 010°19'0 0.0
2018-Jul-26 03:30N 43°34' E 010°19'0 0.0
2018-Jul-26 03:00N 43°34' E 010°19'0 0.0
2018-Jul-26 02:30N 43°34' E 010°19'0 0.0
2018-Jul-26 02:00N 43°34' E 010°19'0 0.0
2018-Jul-26 01:30N 43°34' E 010°19'0 0.0
2018-Jul-26 01:00N 43°34' E 010°19'0 0.0
2018-Jul-26 00:30N 43°34' E 010°19'0 0.0
2018-Jul-26 00:00N 43°34' E 010°19'0 0.0
2018-Jul-25 23:30N 43°34' E 010°19'0 0.0
2018-Jul-25 22:57N 43°34' E 010°19'0 0.0
2018-Jul-25 22:30N 43°34' E 010°19'0 0.0
2018-Jul-25 22:00N 43°34' E 010°19'0 0.0
2018-Jul-25 21:30N 43°34' E 010°19'0 0.0
2018-Jul-25 21:00N 43°34' E 010°19'0 0.0
2018-Jul-25 20:30N 43°34' E 010°19'0 0.0
2018-Jul-25 20:00N 43°34' E 010°19'0 0.0
2018-Jul-25 19:30N 43°34' E 010°19'0 0.0
2018-Jul-25 18:57N 43°34' E 010°19'0 0.0
2018-Jul-25 18:27N 43°34' E 010°19'0 0.0
2018-Jul-25 17:54N 43°34' E 010°19'0 0.0
2018-Jul-25 17:27N 43°34' E 010°19'0 0.0
2018-Jul-25 17:00N 43°34' E 010°19'0 0.0
2018-Jul-25 16:30N 43°34' E 010°19'0 0.0
2018-Jul-25 16:00N 43°34' E 010°19'0 0.0
2018-Jul-25 15:27N 43°34' E 010°19'0 0.0
2018-Jul-25 15:00N 43°34' E 010°19'0 0.0
2018-Jul-25 14:27N 43°34' E 010°19'0 0.0
2018-Jul-25 14:00N 43°34' E 010°19'0 0.0
2018-Jul-25 13:30N 43°34' E 010°19'0 0.0
2018-Jul-25 13:00N 43°34' E 010°19'0 0.0
2018-Jul-25 12:30N 43°34' E 010°19'0 0.0
2018-Jul-25 12:00N 43°34' E 010°19'0 0.0
2018-Jul-25 11:30N 43°34' E 010°19'0 0.0
2018-Jul-25 11:00N 43°34' E 010°19'0 0.0
2018-Jul-25 10:30N 43°34' E 010°19'0 0.0
2018-Jul-25 10:00N 43°34' E 010°19'0 0.0
2018-Jul-25 09:30N 43°34' E 010°19'0 0.0
2018-Jul-25 09:00N 43°34' E 010°19'0 0.0
2018-Jul-25 08:27N 43°34' E 010°19'0 0.0
2018-Jul-25 07:48N 43°34' E 010°19'0 0.0
2018-Jul-25 07:30N 43°34' E 010°19'0 0.0
2018-Jul-25 07:00N 43°34' E 010°19'0 0.0
2018-Jul-25 06:30N 43°34' E 010°19'0 0.0
2018-Jul-25 06:00N 43°34' E 010°19'0 0.0
2018-Jul-25 05:30N 43°34' E 010°19'0 0.0
2018-Jul-25 05:00N 43°34' E 010°19'0 0.0
2018-Jul-25 04:27N 43°34' E 010°19'0 0.0
2018-Jul-25 04:00N 43°34' E 010°19'0 0.0
2018-Jul-25 03:30N 43°34' E 010°19'0 0.0
2018-Jul-25 02:57N 43°34' E 010°19'0 0.0
2018-Jul-25 02:27N 43°34' E 010°19'0 0.0
2018-Jul-25 02:00N 43°34' E 010°19'0 0.0
2018-Jul-25 01:30N 43°34' E 010°19'0 0.0
2018-Jul-25 01:00N 43°34' E 010°19'0 0.0
2018-Jul-25 00:30N 43°34' E 010°19'0 0.0
2018-Jul-25 00:00N 43°34' E 010°19'0 0.0
2018-Jul-24 23:30N 43°34' E 010°19'0 0.0
2018-Jul-24 23:00N 43°34' E 010°19'0 0.0
2018-Jul-24 22:27N 43°34' E 010°19'0 0.0
2018-Jul-24 22:00N 43°34' E 010°19'0 0.0
2018-Jul-24 21:24N 43°34' E 010°19'0 0.0
2018-Jul-24 21:00N 43°34' E 010°19'0 0.0
2018-Jul-24 20:30N 43°34' E 010°19'0 0.0
2018-Jul-24 20:00N 43°34' E 010°19'0 0.0
2018-Jul-24 19:30N 43°34' E 010°19'0 0.0
2018-Jul-24 19:00N 43°34' E 010°19'0 0.0
2018-Jul-24 18:30N 43°34' E 010°19'0 0.0
2018-Jul-24 18:00N 43°34' E 010°19'0 0.0
2018-Jul-24 17:30N 43°34' E 010°19'0 0.0
2018-Jul-24 17:00N 43°34' E 010°19'0 0.0
2018-Jul-24 16:30N 43°34' E 010°19'0 0.0
2018-Jul-24 16:00N 43°34' E 010°19'0 0.0
2018-Jul-24 15:30N 43°34' E 010°19'0 0.0
2018-Jul-24 14:21N 43°34' E 010°19'0 0.0
2018-Jul-24 14:00N 43°34' E 010°19'0 0.0
2018-Jul-24 13:30N 43°34' E 010°19'0 0.0
2018-Jul-24 12:57N 43°34' E 010°19'0 0.0
2018-Jul-24 12:27N 43°34' E 010°19'0 0.0
2018-Jul-24 12:00N 43°34' E 010°19'0 0.0
2018-Jul-24 11:30N 43°34' E 010°19'0 0.0
2018-Jul-24 10:51N 43°34' E 010°19'0 0.0
2018-Jul-24 10:30N 43°34' E 010°19'0 0.0
2018-Jul-24 09:57N 43°34' E 010°19'0 0.0
2018-Jul-24 09:27N 43°34' E 010°19'0 0.0
2018-Jul-24 09:00N 43°34' E 010°19'0 0.0
2018-Jul-24 08:30N 43°34' E 010°19'0 0.0
2018-Jul-24 07:57N 43°34' E 010°19'0 0.0
2018-Jul-24 07:30N 43°34' E 010°19'0 0.0
2018-Jul-24 07:00N 43°34' E 010°19'0 0.0
2018-Jul-24 06:30N 43°34' E 010°19'0 0.0
2018-Jul-24 06:00N 43°34' E 010°19'0 0.0
2018-Jul-24 05:30N 43°34' E 010°19'0 0.0
2018-Jul-24 05:00N 43°34' E 010°19'0 0.0
2018-Jul-24 04:27N 43°34' E 010°19'0 0.0
2018-Jul-24 03:57N 43°34' E 010°19'0 0.0
2018-Jul-24 03:30N 43°34' E 010°19'0 0.0
2018-Jul-24 03:00N 43°34' E 010°19'0 0.0
2018-Jul-24 02:30N 43°34' E 010°19'0 0.0
2018-Jul-24 02:00N 43°34' E 010°19'0 0.0
2018-Jul-24 01:30N 43°34' E 010°19'0 0.0
2018-Jul-24 01:00N 43°34' E 010°19'0 0.0
2018-Jul-24 00:30N 43°34' E 010°19'0 0.0
2018-Jul-23 23:57N 43°34' E 010°19'0 0.0
2018-Jul-23 23:27N 43°34' E 010°19'0 0.0
2018-Jul-23 23:00N 43°34' E 010°19'0 0.0
2018-Jul-23 22:30N 43°34' E 010°19'0 0.0
2018-Jul-23 22:00N 43°34' E 010°19'0 0.0
2018-Jul-23 21:30N 43°34' E 010°19'0 0.0
2018-Jul-23 21:00N 43°34' E 010°19'0 0.0
2018-Jul-23 20:27N 43°34' E 010°19'0 0.0
2018-Jul-23 19:30N 43°34' E 010°19'0 0.0
2018-Jul-23 18:59N 43°34' E 010°19'1 1.9
2018-Jul-23 18:30N 43°34' E 010°18'3 5.5
2018-Jul-23 18:00N 43°31' E 010°16'1 1.9
2018-Jul-23 17:31N 43°31' E 010°17'0 0.5
2018-Jul-23 17:00N 43°30' E 010°17'1 2.2
2018-Jul-23 16:30N 43°29' E 010°17'0 0.1
2018-Jul-23 15:56N 43°29' E 010°17'0 0.0
2018-Jul-23 15:29N 43°29' E 010°17'0 0.0
2018-Jul-23 14:59N 43°29' E 010°17'0 0.0
2018-Jul-23 14:29N 43°29' E 010°17'0 0.0
2018-Jul-23 13:59N 43°29' E 010°17'0 0.0
2018-Jul-23 13:29N 43°29' E 010°17'0 0.0
2018-Jul-23 12:59N 43°29' E 010°17'0 0.0
2018-Jul-23 12:29N 43°29' E 010°17'0 0.0
2018-Jul-23 11:59N 43°29' E 010°17'0 0.0
2018-Jul-23 11:26N 43°29' E 010°17'0 0.0
2018-Jul-23 10:59N 43°29' E 010°17'0 0.0
2018-Jul-23 10:23N 43°29' E 010°17'0 0.0
2018-Jul-23 09:59N 43°29' E 010°17'0 0.0
2018-Jul-23 09:26N 43°29' E 010°17'0 0.0
2018-Jul-23 08:59N 43°29' E 010°17'0 0.0
2018-Jul-23 08:26N 43°29' E 010°17'0 0.0
2018-Jul-23 07:53N 43°29' E 010°17'0 0.0
2018-Jul-23 07:29N 43°29' E 010°17'0 0.0
2018-Jul-23 06:59N 43°29' E 010°17'0 0.1
2018-Jul-23 06:26N 43°29' E 010°17'0 0.1
2018-Jul-23 05:59N 43°29' E 010°17'0 0.1
2018-Jul-23 05:29N 43°29' E 010°17'0 0.0
2018-Jul-23 04:59N 43°29' E 010°17'0 0.3
2018-Jul-23 04:29N 43°29' E 010°17'0 0.0
2018-Jul-23 03:59N 43°29' E 010°17'0 0.0
2018-Jul-23 03:29N 43°29' E 010°17'0 0.1
2018-Jul-23 02:59N 43°29' E 010°17'0 0.1
2018-Jul-23 02:29N 43°29' E 010°17'0 0.1
2018-Jul-23 01:59N 43°29' E 010°17'0 0.1
2018-Jul-23 01:29N 43°29' E 010°17'0 0.0
2018-Jul-23 00:59N 43°29' E 010°17'0 0.0
2018-Jul-23 00:29N 43°29' E 010°17'0 0.1
2018-Jul-22 23:59N 43°29' E 010°17'0 0.0
2018-Jul-22 23:29N 43°29' E 010°17'0 0.1
2018-Jul-22 22:59N 43°29' E 010°17'0 0.0
2018-Jul-22 22:29N 43°29' E 010°17'0 0.0
2018-Jul-22 21:59N 43°29' E 010°17'0 0.0
2018-Jul-22 21:29N 43°29' E 010°17'0 0.0
2018-Jul-22 20:59N 43°29' E 010°17'0 0.0
2018-Jul-22 20:29N 43°29' E 010°17'0 0.0
2018-Jul-22 19:59N 43°29' E 010°17'0 0.0
2018-Jul-22 19:29N 43°29' E 010°17'0 0.0
2018-Jul-22 18:59N 43°29' E 010°17'0 0.0
2018-Jul-22 18:29N 43°29' E 010°17'0 0.0
2018-Jul-22 17:59N 43°29' E 010°17'0 0.0
2018-Jul-22 17:29N 43°29' E 010°17'0 0.0
2018-Jul-22 16:53N 43°29' E 010°17'0 0.0
2018-Jul-22 16:29N 43°29' E 010°17'0 0.0
2018-Jul-22 15:59N 43°29' E 010°17'0 0.0
2018-Jul-22 14:59N 43°29' E 010°17'0 0.0
2018-Jul-22 14:29N 43°29' E 010°17'0 0.1
2018-Jul-22 13:59N 43°29' E 010°17'0 0.0
2018-Jul-22 13:29N 43°29' E 010°17'0 0.1
2018-Jul-22 12:59N 43°29' E 010°17'0 0.1
2018-Jul-22 12:29N 43°29' E 010°17'0 0.0
2018-Jul-22 11:59N 43°29' E 010°17'0 0.0
2018-Jul-22 11:29N 43°29' E 010°17'0 0.0
2018-Jul-22 10:59N 43°29' E 010°17'0 0.0
2018-Jul-22 10:29N 43°29' E 010°17'0 0.0
2018-Jul-22 09:59N 43°29' E 010°17'0 0.0
2018-Jul-22 09:29N 43°29' E 010°17'0 0.0
2018-Jul-22 08:59N 43°29' E 010°17'0 0.0
2018-Jul-22 08:29N 43°29' E 010°17'0 0.1
2018-Jul-22 07:59N 43°29' E 010°17'0 0.0
2018-Jul-22 07:26N 43°29' E 010°17'0 0.0
2018-Jul-22 06:59N 43°29' E 010°17'0 0.0
2018-Jul-22 06:29N 43°29' E 010°17'0 0.0
2018-Jul-22 05:59N 43°29' E 010°17'0 0.0
2018-Jul-22 05:29N 43°29' E 010°17'0 0.0
2018-Jul-22 04:59N 43°29' E 010°17'0 0.0
2018-Jul-22 04:29N 43°29' E 010°17'0 0.0
2018-Jul-22 03:59N 43°29' E 010°17'0 0.0
2018-Jul-22 03:29N 43°29' E 010°17'0 0.0
2018-Jul-22 02:59N 43°29' E 010°17'0 0.0
2018-Jul-22 02:29N 43°29' E 010°17'0 0.0
2018-Jul-22 01:59N 43°29' E 010°17'0 0.1
2018-Jul-22 01:29N 43°29' E 010°17'0 0.0
2018-Jul-22 00:59N 43°29' E 010°17'0 0.0
2018-Jul-22 00:29N 43°29' E 010°17'0 0.0
2018-Jul-21 23:59N 43°29' E 010°17'0 0.0
2018-Jul-21 23:29N 43°29' E 010°17'0 0.0
2018-Jul-21 22:59N 43°29' E 010°17'0 0.1
2018-Jul-21 22:29N 43°29' E 010°17'0 0.0
2018-Jul-21 21:59N 43°29' E 010°17'0 0.0
2018-Jul-21 21:23N 43°29' E 010°17'0 0.0
2018-Jul-21 20:59N 43°29' E 010°17'0 0.0
2018-Jul-21 20:29N 43°29' E 010°17'0 0.0
2018-Jul-21 19:59N 43°29' E 010°17'0 0.0
2018-Jul-21 19:29N 43°29' E 010°17'0 0.0
2018-Jul-21 18:59N 43°29' E 010°17'0 0.0
2018-Jul-21 18:29N 43°29' E 010°17'0 0.0
2018-Jul-21 17:59N 43°29' E 010°17'0 0.0
2018-Jul-21 17:29N 43°29' E 010°17'0 0.0
2018-Jul-21 16:59N 43°29' E 010°17'0 0.0
2018-Jul-21 16:29N 43°29' E 010°17'0 0.0
2018-Jul-21 15:59N 43°29' E 010°17'0 0.0
2018-Jul-21 15:29N 43°29' E 010°17'0 0.0
2018-Jul-21 14:59N 43°29' E 010°17'0 0.0
2018-Jul-21 14:29N 43°29' E 010°17'0 0.0
2018-Jul-21 13:59N 43°29' E 010°17'0 0.0
2018-Jul-21 13:29N 43°29' E 010°17'0 0.0
2018-Jul-21 12:59N 43°29' E 010°17'0 0.0
2018-Jul-21 12:29N 43°29' E 010°17'0 0.0
2018-Jul-21 11:59N 43°29' E 010°17'0 0.0
2018-Jul-21 11:29N 43°29' E 010°17'0 0.0
2018-Jul-21 10:59N 43°29' E 010°17'0 0.0
2018-Jul-21 10:29N 43°29' E 010°17'0 0.0
2018-Jul-21 09:59N 43°29' E 010°17'0 0.0
2018-Jul-21 09:29N 43°29' E 010°17'0 0.0
2018-Jul-21 08:59N 43°29' E 010°17'0 0.0
2018-Jul-21 08:29N 43°29' E 010°17'0 0.0
2018-Jul-21 07:59N 43°29' E 010°17'0 0.0
2018-Jul-21 07:29N 43°29' E 010°17'0 0.0
2018-Jul-21 06:59N 43°29' E 010°17'0 0.0
2018-Jul-21 06:29N 43°29' E 010°17'0 0.0
2018-Jul-21 05:59N 43°29' E 010°17'0 0.0
2018-Jul-21 05:29N 43°29' E 010°17'0 0.0
2018-Jul-21 04:59N 43°29' E 010°17'0 0.0
2018-Jul-21 04:29N 43°29' E 010°17'0 0.0
2018-Jul-21 03:59N 43°29' E 010°17'0 0.0
2018-Jul-21 03:29N 43°29' E 010°17'0 0.0
2018-Jul-21 02:59N 43°29' E 010°17'0 0.0
2018-Jul-21 02:29N 43°29' E 010°17'0 0.0
2018-Jul-21 01:59N 43°29' E 010°17'0 0.1
2018-Jul-21 01:26N 43°29' E 010°17'0 0.2
2018-Jul-21 00:59N 43°29' E 010°17'0 0.1
2018-Jul-21 00:29N 43°29' E 010°17'0 0.1
2018-Jul-20 23:59N 43°29' E 010°17'0 0.1
2018-Jul-20 23:29N 43°29' E 010°17'0 0.0
2018-Jul-20 22:59N 43°29' E 010°17'0 0.0
2018-Jul-20 22:29N 43°29' E 010°17'0 0.1
2018-Jul-20 21:59N 43°29' E 010°17'0 0.0
2018-Jul-20 21:29N 43°29' E 010°17'0 0.0
2018-Jul-20 20:59N 43°29' E 010°17'0 0.0
2018-Jul-20 20:29N 43°29' E 010°17'0 0.0
2018-Jul-20 19:59N 43°29' E 010°17'0 0.0
2018-Jul-20 19:29N 43°29' E 010°17'0 0.0
2018-Jul-20 18:59N 43°29' E 010°17'0 0.0
2018-Jul-20 18:26N 43°29' E 010°17'0 0.0
2018-Jul-20 17:56N 43°29' E 010°17'0 0.0
2018-Jul-20 17:29N 43°29' E 010°17'0 0.0
2018-Jul-20 16:59N 43°29' E 010°17'0 0.0
2018-Jul-20 16:29N 43°29' E 010°17'0 0.0
2018-Jul-20 15:59N 43°29' E 010°17'0 0.0
2018-Jul-20 15:29N 43°29' E 010°17'0 0.0
2018-Jul-20 14:59N 43°29' E 010°17'0 0.0
2018-Jul-20 14:29N 43°29' E 010°17'0 0.0
2018-Jul-20 13:59N 43°29' E 010°17'0 0.0
2018-Jul-20 13:29N 43°29' E 010°17'0 0.0
2018-Jul-20 12:59N 43°29' E 010°17'0 0.0
2018-Jul-20 12:29N 43°29' E 010°17'0 0.0
2018-Jul-20 11:59N 43°29' E 010°17'0 0.0
2018-Jul-20 11:29N 43°29' E 010°17'0 0.0
2018-Jul-20 10:59N 43°29' E 010°17'0 0.0
2018-Jul-20 10:29N 43°29' E 010°17'0 0.8
2018-Jul-20 10:00N 43°29' E 010°17'4 7.7
2018-Jul-20 09:30N 43°27' E 010°13'611.3
2018-Jul-20 09:00N 43°23' E 010°07'611.5
2018-Jul-20 08:30N 43°19' E 010°02'611.4
2018-Jul-20 08:00N 43°15' E 009°56'611.5
2018-Jul-20 07:30N 43°12' E 009°49'611.6
2018-Jul-20 07:00N 43°09' E 009°43'811.3
2018-Jul-20 06:19N 43°01' E 009°39'512.0
2018-Jul-20 05:56N 42°57' E 009°40'611.8
2018-Jul-20 05:27N 42°51' E 009°42'1311.6
2018-Jul-20 04:22N 42°39' E 009°48'511.3
2018-Jul-20 03:54N 42°34' E 009°50'1111.5
2018-Jul-20 02:57N 42°24' E 009°54'1111.5
2018-Jul-20 01:58N 42°13' E 009°59'511.5
2018-Jul-20 01:30N 42°08' E 010°02'711.4
2018-Jul-20 00:54N 42°02' E 010°05'611.3
2018-Jul-20 00:24N 41°56' E 010°07'811.6
2018-Jul-19 23:41N 41°48' E 010°11'211.7
2018-Jul-19 23:30N 41°46' E 010°12'1211.6
2018-Jul-19 22:30N 41°35' E 010°16'611.3
2018-Jul-19 22:00N 41°30' E 010°18'611.1
2018-Jul-19 21:30N 41°25' E 010°21'511.0
2018-Jul-19 21:00N 41°20' E 010°23'510.9
2018-Jul-19 20:30N 41°14' E 010°26'911.0
2018-Jul-19 19:41N 41°06' E 010°29'711.1
2018-Jul-19 19:04N 40°59' E 010°31'111.4
2018-Jul-19 19:00N 40°58' E 010°32'611.5
2018-Jul-19 18:30N 40°53' E 010°34'611.4
2018-Jul-19 18:00N 40°48' E 010°36'611.2
2018-Jul-19 17:30N 40°42' E 010°38'611.3
2018-Jul-19 17:00N 40°37' E 010°41'611.3
2018-Jul-19 16:30N 40°32' E 010°43'611.3
2018-Jul-19 16:00N 40°26' E 010°46'611.2
2018-Jul-19 15:30N 40°21' E 010°48'511.0
2018-Jul-19 15:00N 40°16' E 010°51'1110.9
2018-Jul-19 14:00N 40°06' E 010°56'510.7
2018-Jul-19 13:30N 40°01' E 010°58'510.9
2018-Jul-19 13:00N 39°56' E 011°01'511.0
2018-Jul-19 12:30N 39°50' E 011°03'611.2
2018-Jul-19 12:01N 39°45' E 011°05'611.3
2018-Jul-19 11:30N 39°40' E 011°08'611.3
2018-Jul-19 11:00N 39°34' E 011°10'611.2
2018-Jul-19 10:30N 39°29' E 011°13'511.0
2018-Jul-19 10:00N 39°24' E 011°15'510.9
2018-Jul-19 09:30N 39°19' E 011°17'611.3
2018-Jul-19 08:59N 39°13' E 011°19'511.1
2018-Jul-19 08:30N 39°08' E 011°21'611.3
2018-Jul-19 08:00N 39°02' E 011°23'611.4
2018-Jul-19 07:30N 38°57' E 011°25'6312.0
2018-Jul-19 02:17N 37°58' E 011°52'311.8
2018-Jul-19 02:00N 37°55' E 011°53'611.9
2018-Jul-19 01:30N 37°49' E 011°55'1810.7
2018-Jul-18 23:48N 37°35' E 012°09'511.4
2018-Jul-18 23:23N 37°32' E 012°14'411.3
2018-Jul-18 23:00N 37°30' E 012°19'4711.6
2018-Jul-18 18:57N 37°09' E 013°12'511.5
2018-Jul-18 18:30N 37°07' E 013°18'611.5
2018-Jul-18 17:59N 37°04' E 013°24'611.9
2018-Jul-18 17:30N 37°02' E 013°31'611.9
2018-Jul-18 17:00N 36°60' E 013°38'611.8
2018-Jul-18 16:30N 36°58' E 013°45'611.9
2018-Jul-18 16:00N 36°55' E 013°52'611.8
2018-Jul-18 15:30N 36°53' E 013°59'611.7
2018-Jul-18 15:00N 36°50' E 014°05'611.8
2018-Jul-18 14:30N 36°48' E 014°12'1111.1
2018-Jul-18 13:30N 36°43' E 014°24'510.3
2018-Jul-18 13:00N 36°41' E 014°30'510.0
2018-Jul-18 12:30N 36°39' E 014°36'5 9.7
2018-Jul-18 12:00N 36°37' E 014°41'510.9
2018-Jul-18 11:30N 36°35' E 014°48'  

Dump ship's entire track history